SBVT

Details ICAO SBVT (VIX)
Name Goiabeiras
Region Brazil
Timezone America/Sao_Paulo (UTC-3.0)
Plans Departing 152
Arriving 140
Stats Elevation 11 ft / 3 m (AMSL)
Location -20.255611° -40.288893°
Runways 1
Magnetic Variation 23.828° W
Sunrise 2018-05-22 09:06:59 UTC / 2018-05-22 06:06:59 Local
Sunset 2018-05-22 20:11:32 UTC / 2018-05-22 17:11:32 Local
Advertisement - Login to hide

Runways

ID Width Length Bearing (true) Bearing (mag) Surface Threshold Offset Overrun Length
05 148 ft / 45 m 5,769 ft / 1,759 m 31.71° 55.54° Asphalt 0 ft / 0 m 189 ft / 58 m
23 148 ft / 45 m 5,769 ft / 1,759 m 211.71° 235.54° Asphalt 0 ft / 0 m 189 ft / 58 m

Map

Weather


0- 5 10 15 20 25 30 35+ Temperature / ° C

Clouds and Precipitation
Forecast for 2018-05-22 12:00 UTC. Updated an hour ago

Ground ~20,000 ft ~40,000 ft Winds

METAR

SBVT 220900Z 27003KT 9999 SCT040 18/16 Q1019

TAF

TAF SBVT 220300Z 2206/2306 25005KT 9999 SCT025 TN20/2207Z TX27/2216Z BECMG 2212/2213 16010KT RMK PCN

Frequencies

Recorded 127.57 MHz VITORIA ATIS
Approach 119.85 MHz VITORIA APP
Tower 118.10 MHz VITORIA TWR
Warning: Do not use this data for real-world aviation or navigation. No guarantee of current accuracy is given.